createdAt,value
2023-02-15T00:00:15.042Z,99.90
2023-02-15T00:01:16.961Z,99.90
2023-02-15T00:02:20.856Z,99.90
2023-02-15T00:03:22.921Z,99.90
2023-02-15T00:04:46.144Z,99.90
2023-02-15T00:05:48.161Z,99.90
2023-02-15T00:06:50.370Z,99.90
2023-02-15T00:07:52.274Z,99.90
2023-02-15T00:08:55.734Z,99.90
2023-02-15T00:09:57.510Z,99.90
2023-02-15T00:11:10.286Z,99.90
2023-02-15T00:12:12.202Z,99.90
2023-02-15T00:13:14.145Z,99.90
2023-02-15T00:14:21.784Z,99.90
2023-02-15T00:15:23.708Z,99.90
2023-02-15T00:16:25.685Z,99.90
2023-02-15T00:17:30.870Z,99.90
2023-02-15T00:18:33.215Z,99.90
2023-02-15T00:19:35.179Z,99.90
2023-02-15T00:20:37.095Z,99.90
2023-02-15T00:21:40.387Z,99.90
2023-02-15T00:22:42.427Z,99.90
2023-02-15T00:23:44.254Z,99.90
2023-02-15T00:24:46.152Z,99.90
2023-02-15T00:25:48.000Z,99.90
2023-02-15T00:26:50.409Z,99.90
2023-02-15T00:27:52.457Z,99.90
2023-02-15T00:28:55.398Z,99.90
2023-02-15T00:29:57.400Z,99.90
2023-02-15T00:31:09.347Z,99.90
2023-02-15T00:32:11.321Z,99.90
2023-02-15T00:33:16.090Z,99.90
2023-02-15T00:34:23.955Z,99.90
2023-02-15T00:35:25.830Z,99.90
2023-02-15T00:36:27.680Z,99.90
2023-02-15T00:37:29.622Z,99.90
2023-02-15T00:38:32.670Z,99.90
2023-02-15T00:39:34.468Z,99.90
2023-02-15T00:40:36.255Z,99.90
2023-02-15T00:41:38.375Z,99.90
2023-02-15T00:42:40.266Z,99.90
2023-02-15T00:43:43.750Z,99.90
2023-02-15T00:44:45.684Z,99.90
2023-02-15T00:45:47.845Z,99.90
2023-02-15T00:46:49.849Z,99.90
2023-02-15T00:47:51.683Z,99.90
2023-02-15T00:48:53.575Z,99.90
2023-02-15T00:49:55.505Z,99.90
2023-02-15T00:50:59.729Z,99.90
2023-02-15T00:52:01.567Z,99.90
2023-02-15T00:53:03.579Z,99.90
2023-02-15T00:54:06.447Z,99.90
2023-02-15T00:55:08.621Z,99.90
2023-02-15T00:56:11.039Z,99.90
2023-02-15T00:57:12.887Z,99.90
2023-02-15T00:58:15.783Z,99.90
2023-02-15T00:59:17.750Z,99.90
2023-02-15T01:00:19.708Z,99.90
2023-02-15T01:01:22.311Z,99.90
2023-02-15T01:02:26.540Z,99.90
2023-02-15T01:03:28.520Z,99.90
2023-02-15T01:04:30.562Z,99.90
2023-02-15T01:05:33.385Z,99.90
2023-02-15T01:06:35.209Z,99.90
2023-02-15T01:07:37.718Z,99.90
2023-02-15T01:08:40.028Z,99.90
2023-02-15T01:09:43.559Z,99.90
2023-02-15T01:10:47.277Z,99.90
2023-02-15T01:11:49.284Z,99.90
2023-02-15T01:12:52.522Z,99.90
2023-02-15T01:13:57.828Z,99.90
2023-02-15T01:15:00.016Z,99.90
2023-02-15T01:16:02.526Z,99.90
2023-02-15T01:17:04.568Z,99.90
2023-02-15T01:18:11.726Z,99.90
2023-02-15T01:19:14.063Z,99.90
2023-02-15T01:20:16.212Z,99.90
2023-02-15T01:21:21.931Z,99.90
2023-02-15T01:22:23.879Z,99.90
2023-02-15T01:23:25.829Z,99.90
2023-02-15T01:24:27.663Z,99.90
2023-02-15T01:25:29.721Z,99.90
2023-02-15T01:26:31.572Z,99.90
2023-02-15T01:27:34.123Z,99.90
2023-02-15T01:28:48.466Z,99.90
2023-02-15T01:29:51.854Z,99.90
2023-02-15T01:30:53.762Z,99.90
2023-02-15T01:31:55.712Z,99.90
2023-02-15T01:32:57.590Z,99.90
2023-02-15T01:33:59.347Z,99.90
2023-02-15T01:35:01.116Z,99.90
2023-02-15T01:36:03.686Z,99.90
2023-02-15T01:37:07.474Z,99.90
2023-02-15T01:38:10.436Z,99.90
2023-02-15T01:39:13.438Z,99.90
2023-02-15T01:40:17.740Z,99.90
2023-02-15T01:41:25.522Z,99.90
2023-02-15T01:42:30.076Z,99.90
2023-02-15T01:43:43.124Z,99.90
2023-02-15T01:45:04.708Z,99.90
2023-02-15T01:46:08.998Z,99.90
2023-02-15T01:47:15.658Z,99.90
2023-02-15T01:48:23.877Z,99.90
2023-02-15T01:49:28.449Z,99.90
2023-02-15T01:50:32.938Z,99.90
2023-02-15T01:51:38.373Z,99.90
2023-02-15T01:52:45.270Z,99.90
2023-02-15T01:53:54.953Z,99.90
2023-02-15T01:54:57.602Z,99.90
2023-02-15T01:56:10.767Z,99.90
2023-02-15T01:57:21.333Z,99.90
2023-02-15T01:58:26.373Z,99.90
2023-02-15T01:59:29.461Z,99.90
2023-02-15T02:00:31.696Z,99.90
2023-02-15T02:01:33.746Z,99.90
2023-02-15T02:02:36.829Z,99.90
2023-02-15T02:04:04.893Z,99.90
2023-02-15T02:05:08.861Z,99.90
2023-02-15T02:06:11.902Z,99.90
2023-02-15T02:07:18.320Z,99.90
2023-02-15T02:08:20.221Z,99.90
2023-02-15T02:09:22.616Z,99.90
2023-02-15T02:10:26.028Z,99.90
2023-02-15T02:11:27.852Z,99.90
2023-02-15T02:12:29.928Z,99.90
2023-02-15T02:13:31.809Z,99.90
2023-02-15T02:14:34.033Z,99.90
2023-02-15T02:15:48.963Z,99.90
2023-02-15T02:17:15.598Z,99.90
2023-02-15T02:18:46.850Z,99.90
2023-02-15T02:20:13.454Z,99.90
2023-02-15T02:21:42.510Z,99.90
2023-02-15T02:23:02.355Z,99.90
2023-02-15T02:25:01.196Z,99.90
2023-02-15T02:26:33.804Z,99.90
2023-02-15T02:27:42.380Z,99.90
2023-02-15T02:28:59.102Z,99.90
2023-02-15T02:30:12.660Z,99.90
2023-02-15T02:31:39.478Z,99.90
2023-02-15T02:33:09.851Z,99.90
2023-02-15T02:34:33.507Z,99.90
2023-02-15T02:35:53.067Z,99.90
2023-02-15T02:37:09.517Z,99.90
2023-02-15T02:38:43.524Z,99.90
2023-02-15T02:39:51.128Z,99.90
2023-02-15T02:41:11.724Z,99.90
2023-02-15T02:42:42.178Z,99.90
2023-02-15T02:43:52.633Z,99.90
2023-02-15T02:45:03.188Z,99.90
2023-02-15T02:46:37.902Z,99.90
2023-02-15T02:47:42.750Z,99.90
2023-02-15T02:48:45.015Z,99.90
2023-02-15T02:49:47.963Z,99.90
2023-02-15T02:50:50.046Z,99.90
2023-02-15T02:52:02.599Z,99.90
2023-02-15T02:53:04.456Z,99.90
2023-02-15T02:54:08.453Z,99.90
2023-02-15T02:55:32.526Z,99.90
2023-02-15T02:56:44.132Z,99.90
2023-02-15T02:57:59.681Z,99.90
2023-02-15T02:59:17.298Z,99.90
2023-02-15T03:00:21.215Z,99.90
2023-02-15T03:01:33.242Z,99.90
2023-02-15T03:02:40.461Z,99.90
2023-02-15T03:03:52.396Z,99.90
2023-02-15T03:05:04.521Z,99.90
2023-02-15T03:06:18.882Z,99.90
2023-02-15T03:07:26.868Z,99.90
2023-02-15T03:08:36.873Z,99.90
2023-02-15T03:09:51.488Z,99.90
2023-02-15T03:10:56.829Z,99.90
2023-02-15T03:11:58.829Z,99.90
2023-02-15T03:13:01.493Z,99.90
2023-02-15T03:14:03.408Z,99.90
2023-02-15T03:15:21.708Z,99.90
2023-02-15T03:16:27.425Z,99.90
2023-02-15T03:17:39.371Z,99.90
2023-02-15T03:18:58.914Z,99.90
2023-02-15T03:20:07.736Z,99.90
2023-02-15T03:21:22.923Z,99.90
2023-02-15T03:23:02.829Z,99.90
2023-02-15T03:24:13.492Z,99.90
2023-02-15T03:25:26.684Z,99.90
2023-02-15T03:26:30.417Z,99.90
2023-02-15T03:27:42.769Z,99.90
2023-02-15T03:28:47.380Z,99.90
2023-02-15T03:29:54.513Z,99.90
2023-02-15T03:31:01.153Z,99.90
2023-02-15T03:32:06.152Z,99.90
2023-02-15T03:33:09.820Z,99.90
2023-02-15T03:34:15.758Z,99.90
2023-02-15T03:35:19.088Z,99.90
2023-02-15T03:36:33.530Z,99.90
2023-02-15T03:37:52.923Z,99.90
2023-02-15T03:39:06.261Z,99.90
2023-02-15T03:40:53.065Z,99.90
2023-02-15T03:42:05.810Z,99.90
2023-02-15T03:43:33.478Z,99.90
2023-02-15T03:44:57.214Z,99.90
2023-02-15T03:46:06.863Z,99.90
2023-02-15T03:47:17.543Z,99.90
2023-02-15T03:48:19.836Z,99.90
2023-02-15T03:49:28.125Z,99.90
2023-02-15T03:50:55.134Z,99.90
2023-02-15T03:51:59.698Z,99.90
2023-02-15T03:53:06.169Z,99.90
2023-02-15T03:54:36.044Z,99.90
2023-02-15T03:55:38.044Z,99.90
2023-02-15T03:57:03.744Z,99.90
2023-02-15T03:58:24.126Z,99.90
2023-02-15T03:59:44.304Z,99.90
2023-02-15T04:01:18.548Z,99.90
2023-02-15T04:02:31.590Z,99.90
2023-02-15T04:03:37.890Z,99.90
2023-02-15T04:04:48.193Z,99.90
2023-02-15T04:05:50.247Z,99.90
2023-02-15T04:06:52.042Z,99.90
2023-02-15T04:07:53.801Z,99.90
2023-02-15T04:09:14.078Z,99.90
2023-02-15T04:10:34.767Z,99.90
2023-02-15T04:11:36.599Z,99.90
2023-02-15T04:12:38.387Z,99.90
2023-02-15T04:13:40.189Z,99.90
2023-02-15T04:15:00.958Z,99.90
2023-02-15T04:16:07.102Z,99.90
2023-02-15T04:17:11.118Z,99.90
2023-02-15T04:18:13.245Z,99.90
2023-02-15T04:19:33.922Z,99.90
2023-02-15T04:20:54.300Z,99.90
2023-02-15T04:22:14.806Z,99.90
2023-02-15T04:23:35.023Z,99.90
2023-02-15T04:24:55.333Z,99.90
2023-02-15T04:25:57.104Z,99.90
2023-02-15T04:26:59.782Z,99.90
2023-02-15T04:28:01.574Z,99.90
2023-02-15T04:29:03.426Z,99.90
2023-02-15T04:30:06.949Z,99.90
2023-02-15T04:31:08.999Z,99.90
2023-02-15T04:32:10.812Z,99.90
2023-02-15T04:33:12.684Z,99.90
2023-02-15T04:34:15.176Z,99.90
2023-02-15T04:35:17.395Z,99.90
2023-02-15T04:36:19.248Z,99.90
2023-02-15T04:37:20.990Z,99.90
2023-02-15T04:38:23.489Z,99.90
2023-02-15T04:39:25.396Z,99.90
2023-02-15T04:40:27.281Z,99.90
2023-02-15T04:41:29.042Z,99.90
2023-02-15T04:42:30.820Z,99.90
2023-02-15T04:43:32.600Z,99.90
2023-02-15T04:44:34.347Z,99.90
2023-02-15T04:45:36.135Z,99.90
2023-02-15T04:46:38.035Z,99.90
2023-02-15T04:47:39.957Z,99.90
2023-02-15T04:48:41.763Z,99.90
2023-02-15T04:49:43.501Z,99.90
2023-02-15T04:50:45.889Z,99.90
2023-02-15T04:51:47.915Z,99.90
2023-02-15T04:52:49.774Z,99.90
2023-02-15T04:53:53.509Z,99.90
2023-02-15T04:54:55.277Z,99.90
2023-02-15T04:55:57.159Z,99.90
2023-02-15T04:56:59.022Z,99.90
2023-02-15T04:58:00.838Z,99.90
2023-02-15T04:59:02.726Z,99.90
2023-02-15T05:00:04.914Z,99.90
2023-02-15T05:01:06.718Z,99.90
2023-02-15T05:02:08.462Z,99.90
2023-02-15T05:03:10.626Z,99.90
2023-02-15T05:04:12.472Z,99.90
2023-02-15T05:05:16.180Z,99.90
2023-02-15T05:06:18.012Z,99.90
2023-02-15T05:07:21.372Z,99.90
2023-02-15T05:08:23.338Z,99.90
2023-02-15T05:09:25.033Z,99.90
2023-02-15T05:10:26.736Z,99.90
2023-02-15T05:11:28.523Z,99.90
2023-02-15T05:12:30.315Z,99.90
2023-02-15T05:13:32.179Z,99.90
2023-02-15T05:14:33.966Z,99.90
2023-02-15T05:15:35.747Z,99.90
2023-02-15T05:16:37.657Z,99.90
2023-02-15T05:17:39.498Z,99.90
2023-02-15T05:18:41.267Z,99.90
2023-02-15T05:19:43.180Z,99.90
2023-02-15T05:20:45.366Z,99.90
2023-02-15T05:21:47.244Z,99.90
2023-02-15T05:22:48.999Z,99.90
2023-02-15T05:23:50.880Z,99.90
2023-02-15T05:25:11.305Z,99.90
2023-02-15T05:26:52.398Z,99.90
2023-02-15T05:28:12.462Z,99.90
2023-02-15T05:29:14.229Z,99.90
2023-02-15T05:30:16.250Z,99.90
2023-02-15T05:31:20.359Z,99.90
2023-02-15T05:32:22.430Z,99.90
2023-02-15T05:33:24.271Z,99.90
2023-02-15T05:34:26.144Z,99.90
2023-02-15T05:35:28.046Z,99.90
2023-02-15T05:36:29.953Z,99.90
2023-02-15T05:37:31.853Z,99.90
2023-02-15T05:38:34.056Z,99.90
2023-02-15T05:39:35.851Z,99.90
2023-02-15T05:40:37.681Z,99.90
2023-02-15T05:41:39.423Z,99.90
2023-02-15T05:42:41.229Z,99.90
2023-02-15T05:43:43.050Z,99.90
2023-02-15T05:44:44.887Z,99.90
2023-02-15T05:45:48.461Z,99.90
2023-02-15T05:46:50.228Z,99.90
2023-02-15T05:47:52.064Z,99.90
2023-02-15T05:48:53.821Z,99.90
2023-02-15T05:49:55.689Z,99.90
2023-02-15T05:51:07.846Z,99.90
2023-02-15T05:52:10.001Z,99.90
2023-02-15T05:53:12.257Z,99.90
2023-02-15T05:54:14.044Z,99.90
2023-02-15T05:55:15.878Z,99.90
2023-02-15T05:56:17.679Z,99.90
2023-02-15T05:57:19.417Z,99.90
2023-02-15T05:58:21.602Z,99.90
2023-02-15T05:59:23.371Z,99.90
2023-02-15T06:00:26.297Z,99.90
2023-02-15T06:01:28.145Z,99.90
2023-02-15T06:02:29.948Z,99.90
2023-02-15T06:03:31.913Z,99.90
2023-02-15T06:04:33.664Z,99.90
2023-02-15T06:05:35.543Z,99.90
2023-02-15T06:06:37.394Z,99.90
2023-02-15T06:07:39.157Z,99.90
2023-02-15T06:08:41.490Z,99.90
2023-02-15T06:09:43.430Z,99.90
2023-02-15T06:10:47.174Z,99.90
2023-02-15T06:11:49.065Z,99.90
2023-02-15T06:12:51.027Z,99.90
2023-02-15T06:13:52.914Z,99.90
2023-02-15T06:14:54.718Z,99.90
2023-02-15T06:15:56.945Z,99.90
2023-02-15T06:16:58.899Z,99.90
2023-02-15T06:18:00.804Z,99.90
2023-02-15T06:19:02.932Z,99.90
2023-02-15T06:20:05.318Z,99.90
2023-02-15T06:21:07.216Z,99.90
2023-02-15T06:22:09.308Z,99.90
2023-02-15T06:23:11.088Z,99.90
2023-02-15T06:24:13.043Z,99.90
2023-02-15T06:25:14.917Z,99.90
2023-02-15T06:26:17.148Z,99.90
2023-02-15T06:27:18.988Z,99.90
2023-02-15T06:28:21.318Z,99.90
2023-02-15T06:29:23.215Z,99.90
2023-02-15T06:30:25.116Z,99.90
2023-02-15T06:31:27.236Z,99.90
2023-02-15T06:32:29.113Z,99.90
2023-02-15T06:33:35.019Z,99.90
2023-02-15T06:34:36.979Z,99.90
2023-02-15T06:35:38.812Z,99.90
2023-02-15T06:36:40.617Z,99.90
2023-02-15T06:37:42.514Z,99.90
2023-02-15T06:38:44.298Z,99.90
2023-02-15T06:39:46.052Z,99.90
2023-02-15T06:40:47.958Z,99.90
2023-02-15T06:41:49.806Z,99.90
2023-02-15T06:42:51.745Z,99.90
2023-02-15T06:43:53.579Z,99.90
2023-02-15T06:44:55.390Z,99.90
2023-02-15T06:45:57.302Z,99.90
2023-02-15T06:46:59.057Z,99.90
2023-02-15T06:48:00.821Z,99.90
2023-02-15T06:49:02.684Z,99.90
2023-02-15T06:50:06.170Z,99.90
2023-02-15T06:51:08.066Z,99.90
2023-02-15T06:52:09.921Z,99.90
2023-02-15T06:53:11.929Z,99.90
2023-02-15T06:54:13.841Z,99.90
2023-02-15T06:55:15.646Z,99.90
2023-02-15T06:56:17.486Z,99.90
2023-02-15T06:57:19.225Z,99.90
2023-02-15T06:58:20.969Z,99.90
2023-02-15T06:59:22.790Z,99.90
2023-02-15T07:00:24.776Z,99.90
2023-02-15T07:01:26.656Z,99.90
2023-02-15T07:02:28.590Z,99.90
2023-02-15T07:03:31.055Z,99.90
2023-02-15T07:04:32.881Z,99.90
2023-02-15T07:05:35.738Z,99.90
2023-02-15T07:06:37.675Z,99.90
2023-02-15T07:07:39.512Z,99.90
2023-02-15T07:08:41.408Z,99.90
2023-02-15T07:09:43.265Z,99.90
2023-02-15T07:10:45.296Z,99.90
2023-02-15T07:12:05.544Z,99.90
2023-02-15T07:13:07.260Z,99.90
2023-02-15T07:14:08.993Z,99.90
2023-02-15T07:15:16.982Z,99.90
2023-02-15T07:16:20.350Z,99.90
2023-02-15T07:17:37.468Z,99.90
2023-02-15T07:18:39.926Z,99.90
2023-02-15T07:19:41.789Z,99.90
2023-02-15T07:20:43.564Z,99.90
2023-02-15T07:21:46.569Z,99.90
2023-02-15T07:22:49.007Z,99.90
2023-02-15T07:23:50.941Z,99.90
2023-02-15T07:24:55.497Z,99.90
2023-02-15T07:26:01.515Z,99.90
2023-02-15T07:27:03.650Z,99.90
2023-02-15T07:28:05.703Z,99.90
2023-02-15T07:29:07.726Z,99.90
2023-02-15T07:30:12.150Z,99.90
2023-02-15T07:31:15.835Z,99.90
2023-02-15T07:32:18.230Z,99.90
2023-02-15T07:33:27.943Z,99.90
2023-02-15T07:34:29.709Z,99.90
2023-02-15T07:35:31.669Z,99.90
2023-02-15T07:36:33.526Z,99.90
2023-02-15T07:37:35.356Z,99.90
2023-02-15T07:38:38.878Z,99.90
2023-02-15T07:39:40.645Z,99.90
2023-02-15T07:40:42.755Z,99.90
2023-02-15T07:41:44.533Z,99.90
2023-02-15T07:42:47.507Z,99.90
2023-02-15T07:43:49.360Z,99.90
2023-02-15T07:44:53.829Z,99.90
2023-02-15T07:45:55.909Z,99.90
2023-02-15T07:46:58.019Z,99.90
2023-02-15T07:48:02.796Z,99.90
2023-02-15T07:49:04.782Z,99.90
2023-02-15T07:50:07.110Z,99.90
2023-02-15T07:51:11.751Z,99.90
2023-02-15T07:52:14.610Z,99.90
2023-02-15T07:53:16.365Z,99.90
2023-02-15T07:54:18.165Z,99.90
2023-02-15T07:55:20.131Z,99.90
2023-02-15T07:56:21.965Z,99.90
2023-02-15T07:57:23.727Z,99.90
2023-02-15T07:58:45.462Z,99.90
2023-02-15T07:59:47.244Z,99.90
2023-02-15T08:00:58.532Z,99.90
2023-02-15T08:02:00.440Z,99.90
2023-02-15T08:03:14.247Z,99.90
2023-02-15T08:04:16.370Z,99.90
2023-02-15T08:05:19.282Z,99.90
2023-02-15T08:06:23.025Z,99.90
2023-02-15T08:07:24.786Z,99.90
2023-02-15T08:08:31.176Z,99.90
2023-02-15T08:09:33.060Z,99.90
2023-02-15T08:10:54.922Z,99.90
2023-02-15T08:11:56.696Z,99.90
2023-02-15T08:12:58.499Z,99.90
2023-02-15T08:14:09.536Z,99.90
2023-02-15T08:15:11.318Z,99.90
2023-02-15T08:16:14.374Z,99.90
2023-02-15T08:17:16.197Z,99.90
2023-02-15T08:18:17.995Z,99.90
2023-02-15T08:19:32.655Z,99.90
2023-02-15T08:20:34.576Z,99.90
2023-02-15T08:21:39.330Z,99.90
2023-02-15T08:22:41.080Z,99.90
2023-02-15T08:23:42.861Z,99.90
2023-02-15T08:24:44.663Z,99.90
2023-02-15T08:25:46.400Z,99.90
2023-02-15T08:26:49.508Z,99.90
2023-02-15T08:27:51.975Z,99.90
2023-02-15T08:28:54.017Z,99.90
2023-02-15T08:29:56.106Z,99.90
2023-02-15T08:31:07.622Z,99.90
2023-02-15T08:32:11.330Z,99.90
2023-02-15T08:33:13.138Z,99.90
2023-02-15T08:34:17.928Z,99.90
2023-02-15T08:35:19.656Z,99.90
2023-02-15T08:36:23.865Z,99.90
2023-02-15T08:37:26.699Z,99.90
2023-02-15T08:38:28.576Z,99.90
2023-02-15T08:39:31.449Z,99.90
2023-02-15T08:40:33.525Z,99.90
2023-02-15T08:41:37.763Z,99.90
2023-02-15T08:42:39.653Z,99.90
2023-02-15T08:43:42.804Z,99.90
2023-02-15T08:44:45.194Z,99.90
2023-02-15T08:45:46.979Z,99.90
2023-02-15T08:46:49.768Z,99.90
2023-02-15T08:47:51.530Z,99.90
2023-02-15T08:48:53.479Z,99.90
2023-02-15T08:49:56.863Z,99.90
2023-02-15T08:50:58.968Z,99.90
2023-02-15T08:52:00.957Z,99.90
2023-02-15T08:53:03.532Z,99.90
2023-02-15T08:54:14.878Z,99.90
2023-02-15T08:55:16.740Z,99.90
2023-02-15T08:56:24.308Z,99.90
2023-02-15T08:57:26.084Z,99.90
2023-02-15T08:58:29.029Z,99.90
2023-02-15T08:59:30.804Z,99.90
2023-02-15T09:00:32.634Z,99.90
2023-02-15T09:01:36.239Z,99.90
2023-02-15T09:02:38.557Z,99.90
2023-02-15T09:03:41.077Z,99.90
2023-02-15T09:04:42.886Z,99.90
2023-02-15T09:05:44.738Z,99.90
2023-02-15T09:06:49.240Z,99.90
2023-02-15T09:07:51.176Z,99.90
2023-02-15T09:08:54.061Z,99.90
2023-02-15T09:09:55.799Z,99.90
2023-02-15T09:11:10.420Z,99.90
2023-02-15T09:12:12.437Z,99.90
2023-02-15T09:13:14.488Z,99.90
2023-02-15T09:14:21.456Z,99.90
2023-02-15T09:15:23.246Z,99.90
2023-02-15T09:16:28.688Z,99.90
2023-02-15T09:17:30.589Z,99.90
2023-02-15T09:18:36.455Z,99.90
2023-02-15T09:19:38.263Z,99.90
2023-02-15T09:20:40.127Z,99.90
2023-02-15T09:21:42.600Z,99.90
2023-02-15T09:22:44.462Z,99.90
2023-02-15T09:23:48.614Z,99.90
2023-02-15T09:24:51.339Z,99.90
2023-02-15T09:25:53.170Z,99.90
2023-02-15T09:26:54.980Z,99.90
2023-02-15T09:27:56.792Z,99.90
2023-02-15T09:29:01.939Z,99.90
2023-02-15T09:30:04.777Z,99.90
2023-02-15T09:31:08.139Z,99.90
2023-02-15T09:32:10.116Z,99.90
2023-02-15T09:33:11.967Z,99.90
2023-02-15T09:34:17.061Z,99.90
2023-02-15T09:35:18.810Z,99.90
2023-02-15T09:36:22.525Z,99.90
2023-02-15T09:37:24.334Z,99.90
2023-02-15T09:38:27.539Z,99.90
2023-02-15T09:39:29.327Z,99.90
2023-02-15T09:40:36.933Z,99.90
2023-02-15T09:41:54.715Z,99.90
2023-02-15T09:43:24.057Z,99.90
2023-02-15T09:44:46.953Z,99.90
2023-02-15T09:46:17.219Z,99.90
2023-02-15T09:47:49.640Z,99.90
2023-02-15T09:49:12.971Z,99.90
2023-02-15T09:50:36.945Z,99.90
2023-02-15T09:51:44.927Z,99.90
2023-02-15T09:53:23.821Z,99.90
2023-02-15T09:54:46.320Z,99.90
2023-02-15T09:56:02.486Z,99.90
2023-02-15T09:57:30.481Z,99.90
2023-02-15T09:58:47.936Z,99.90
2023-02-15T10:00:19.371Z,99.90
2023-02-15T10:01:26.046Z,99.90
2023-02-15T10:02:45.867Z,99.90
2023-02-15T10:04:12.641Z,99.90
2023-02-15T10:05:22.532Z,99.90
2023-02-15T10:06:27.190Z,99.90
2023-02-15T10:08:04.748Z,99.90
2023-02-15T10:09:47.881Z,99.90
2023-02-15T10:11:28.442Z,99.90
2023-02-15T10:12:58.376Z,99.90
2023-02-15T10:14:02.933Z,99.90
2023-02-15T10:15:10.358Z,99.90
2023-02-15T10:16:32.612Z,99.90
2023-02-15T10:17:55.854Z,99.90
2023-02-15T10:19:36.064Z,99.90
2023-02-15T10:21:04.005Z,99.90
2023-02-15T10:22:19.785Z,99.90
2023-02-15T10:23:24.347Z,99.90
2023-02-15T10:24:48.747Z,99.90
2023-02-15T10:26:01.845Z,99.90
2023-02-15T10:27:14.265Z,99.90
2023-02-15T10:28:24.306Z,99.90
2023-02-15T10:29:40.014Z,99.90
2023-02-15T10:30:51.799Z,99.90
2023-02-15T10:32:24.005Z,99.90
2023-02-15T10:33:43.109Z,99.90
2023-02-15T10:34:52.675Z,99.90
2023-02-15T10:36:06.266Z,99.90
2023-02-15T10:37:23.762Z,99.90
2023-02-15T10:38:53.767Z,99.90
2023-02-15T10:40:12.947Z,99.90
2023-02-15T10:41:35.343Z,99.90
2023-02-15T10:42:55.498Z,99.90
2023-02-15T10:44:24.063Z,99.90
2023-02-15T10:45:55.468Z,99.90
2023-02-15T10:47:21.111Z,99.90
2023-02-15T10:48:28.768Z,99.90
2023-02-15T10:49:33.663Z,99.90
2023-02-15T10:50:49.157Z,99.90
2023-02-15T10:52:09.638Z,99.90
2023-02-15T10:53:21.623Z,99.90
2023-02-15T10:54:52.652Z,99.90
2023-02-15T10:56:08.346Z,99.90
2023-02-15T10:57:38.690Z,99.90
2023-02-15T10:58:40.458Z,99.90
2023-02-15T11:00:01.017Z,99.90
2023-02-15T11:01:13.843Z,99.90
2023-02-15T11:02:37.738Z,99.90
2023-02-15T11:03:56.623Z,99.90
2023-02-15T11:05:20.382Z,99.90
2023-02-15T11:06:24.066Z,99.90
2023-02-15T11:07:34.287Z,99.90
2023-02-15T11:08:41.925Z,99.90
2023-02-15T11:09:52.072Z,99.90
2023-02-15T11:11:03.003Z,99.90
2023-02-15T11:12:12.616Z,99.90
2023-02-15T11:13:19.710Z,99.90
2023-02-15T11:14:44.948Z,99.90
2023-02-15T11:16:01.043Z,99.90
2023-02-15T11:17:13.317Z,99.90
2023-02-15T11:18:37.193Z,99.90
2023-02-15T11:19:48.695Z,99.90
2023-02-15T11:21:01.039Z,99.90
2023-02-15T11:22:06.643Z,99.90
2023-02-15T11:23:28.060Z,99.90
2023-02-15T11:24:35.682Z,99.90
2023-02-15T11:25:37.829Z,99.90
2023-02-15T11:26:44.350Z,99.90
2023-02-15T11:27:49.430Z,99.90
2023-02-15T11:28:58.086Z,99.90
2023-02-15T11:30:05.099Z,99.90
2023-02-15T11:31:26.256Z,99.90
2023-02-15T11:32:41.873Z,99.90
2023-02-15T11:33:48.900Z,99.90
2023-02-15T11:35:05.891Z,99.90
2023-02-15T11:36:12.800Z,99.90
2023-02-15T11:37:22.196Z,99.90
2023-02-15T11:38:29.817Z,99.90
2023-02-15T11:39:32.915Z,99.90
2023-02-15T11:40:49.162Z,99.90
2023-02-15T11:41:55.938Z,99.90
2023-02-15T11:43:03.830Z,99.90
2023-02-15T11:44:17.500Z,99.90
2023-02-15T11:45:32.648Z,99.90
2023-02-15T11:46:34.791Z,99.90
2023-02-15T11:47:36.765Z,99.90
2023-02-15T11:48:38.985Z,99.90
2023-02-15T11:49:40.736Z,99.90
2023-02-15T11:50:43.899Z,99.90
2023-02-15T11:51:45.793Z,99.90
2023-02-15T11:52:49.983Z,99.90
2023-02-15T11:53:52.714Z,99.90
2023-02-15T11:54:54.838Z,99.90
2023-02-15T11:55:56.938Z,99.90
2023-02-15T11:57:05.520Z,99.90
2023-02-15T11:58:26.946Z,99.90
2023-02-15T11:59:34.131Z,99.90
2023-02-15T12:00:47.144Z,99.90
2023-02-15T12:01:48.932Z,99.90
2023-02-15T12:02:54.537Z,99.90
2023-02-15T12:04:02.742Z,99.90
2023-02-15T12:05:10.206Z,99.90
2023-02-15T12:07:02.175Z,99.90
2023-02-15T12:08:15.261Z,99.90
2023-02-15T12:09:38.856Z,99.90
2023-02-15T12:11:08.574Z,99.90
2023-02-15T12:12:24.448Z,99.90
2023-02-15T12:13:26.767Z,99.90
2023-02-15T12:14:48.843Z,99.90
2023-02-15T12:15:56.937Z,99.90
2023-02-15T12:16:58.789Z,99.90
2023-02-15T12:18:00.701Z,99.90
2023-02-15T12:19:03.673Z,99.90
2023-02-15T12:20:20.506Z,99.90
2023-02-15T12:21:29.262Z,99.90
2023-02-15T12:22:35.265Z,99.90
2023-02-15T12:23:56.994Z,99.90
2023-02-15T12:25:21.095Z,99.90
2023-02-15T12:26:34.935Z,99.90
2023-02-15T12:27:38.017Z,99.90
2023-02-15T12:28:44.295Z,99.90
2023-02-15T12:30:03.335Z,99.90
2023-02-15T12:31:21.699Z,99.90
2023-02-15T12:32:29.924Z,99.90
2023-02-15T12:33:47.012Z,99.90
2023-02-15T12:34:49.691Z,99.90
2023-02-15T12:36:18.532Z,99.90
2023-02-15T12:37:25.858Z,99.90
2023-02-15T12:38:28.897Z,99.90
2023-02-15T12:39:33.173Z,99.90
2023-02-15T12:40:35.197Z,99.90
2023-02-15T12:41:38.831Z,99.90
2023-02-15T12:42:45.628Z,99.90
2023-02-15T12:43:47.395Z,99.90
2023-02-15T12:44:56.671Z,99.90
2023-02-15T12:46:21.679Z,99.90
2023-02-15T12:47:29.233Z,99.90
2023-02-15T12:48:31.263Z,99.90
2023-02-15T12:49:34.211Z,99.90
2023-02-15T12:50:36.841Z,99.90
2023-02-15T12:51:53.850Z,99.90
2023-02-15T12:53:25.305Z,99.90
2023-02-15T12:54:35.491Z,99.90
2023-02-15T12:55:37.596Z,99.90
2023-02-15T12:56:39.348Z,99.90
2023-02-15T12:57:41.252Z,99.90
2023-02-15T12:58:43.584Z,99.90
2023-02-15T12:59:54.162Z,99.90
2023-02-15T13:01:14.042Z,99.90
2023-02-15T13:02:27.366Z,99.90
2023-02-15T13:03:29.326Z,99.90
2023-02-15T13:04:31.297Z,99.90
2023-02-15T13:05:44.207Z,99.90
2023-02-15T13:06:52.969Z,99.90
2023-02-15T13:08:01.685Z,99.90
2023-02-15T13:09:16.773Z,99.90
2023-02-15T13:10:36.164Z,99.90
2023-02-15T13:11:39.391Z,99.90
2023-02-15T13:12:48.105Z,99.90
2023-02-15T13:13:57.325Z,99.90
2023-02-15T13:15:00.229Z,99.90
2023-02-15T13:16:15.015Z,99.90
2023-02-15T13:17:19.550Z,99.90
2023-02-15T13:18:31.358Z,99.90
2023-02-15T13:19:35.820Z,99.90
2023-02-15T13:20:41.830Z,99.90
2023-02-15T13:21:50.329Z,99.90
2023-02-15T13:22:54.944Z,99.90
2023-02-15T13:24:02.386Z,99.90
2023-02-15T13:25:22.773Z,99.90
2023-02-15T13:26:30.573Z,99.90
2023-02-15T13:27:39.567Z,99.90
2023-02-15T13:28:48.780Z,99.90
2023-02-15T13:29:59.975Z,99.90
2023-02-15T13:31:02.194Z,99.90
2023-02-15T13:32:31.577Z,99.90
2023-02-15T13:33:37.515Z,99.90
2023-02-15T13:34:40.794Z,99.90
2023-02-15T13:35:58.074Z,99.90
2023-02-15T13:37:28.058Z,99.90
2023-02-15T13:38:51.565Z,99.90
2023-02-15T13:40:02.746Z,99.90
2023-02-15T13:41:10.458Z,99.90
2023-02-15T13:42:37.734Z,99.90
2023-02-15T13:44:00.379Z,99.90
2023-02-15T13:45:16.821Z,99.90
2023-02-15T13:46:47.464Z,99.90
2023-02-15T13:48:15.524Z,99.80
2023-02-15T13:49:57.427Z,99.40
2023-02-15T13:51:37.595Z,99.40
2023-02-15T13:53:03.798Z,99.30
2023-02-15T13:54:21.884Z,99.30
2023-02-15T13:55:44.846Z,99.40
2023-02-15T13:57:17.692Z,99.50
2023-02-15T13:58:51.537Z,99.50
2023-02-15T13:59:57.148Z,99.50
2023-02-15T14:01:10.755Z,99.30
2023-02-15T14:02:32.079Z,99.20
2023-02-15T14:04:07.020Z,99.40
2023-02-15T14:05:40.963Z,99.30
2023-02-15T14:07:13.288Z,99.50
2023-02-15T14:08:35.309Z,99.40
2023-02-15T14:09:52.362Z,99.30
2023-02-15T14:11:33.660Z,99.70
2023-02-15T14:12:41.129Z,99.40
2023-02-15T14:13:53.435Z,99.00
2023-02-15T14:15:45.528Z,99.00
2023-02-15T14:17:05.813Z,98.90
2023-02-15T14:18:19.923Z,98.90
2023-02-15T14:19:46.817Z,99.00
2023-02-15T14:21:03.412Z,98.80
2023-02-15T14:22:09.336Z,98.50
2023-02-15T14:23:43.242Z,98.40
2023-02-15T14:24:56.985Z,98.40
2023-02-15T14:26:07.682Z,98.40
2023-02-15T14:27:29.133Z,98.30
2023-02-15T14:29:06.584Z,98.50
2023-02-15T14:30:40.248Z,98.70
2023-02-15T14:31:46.530Z,98.60
2023-02-15T14:32:53.538Z,98.80
2023-02-15T14:33:58.114Z,98.60
2023-02-15T14:35:02.280Z,98.50
2023-02-15T14:36:07.729Z,98.60
2023-02-15T14:37:13.092Z,98.60
2023-02-15T14:38:47.877Z,98.60
2023-02-15T14:40:36.743Z,98.60
2023-02-15T14:41:49.351Z,98.60
2023-02-15T14:43:12.647Z,98.60